createdAt,value
2017-09-10T00:02:11.654Z,13.59
2017-09-10T00:04:39.280Z,13.62
2017-09-10T00:07:06.900Z,13.62
2017-09-10T00:09:34.524Z,13.62
2017-09-10T00:12:02.109Z,13.62
2017-09-10T00:14:29.720Z,13.61
2017-09-10T00:16:57.294Z,13.60
2017-09-10T00:19:25.220Z,13.58
2017-09-10T00:21:52.775Z,13.58
2017-09-10T00:24:20.335Z,13.58
2017-09-10T00:26:47.975Z,13.58
2017-09-10T00:29:15.552Z,13.59
2017-09-10T00:31:43.166Z,13.58
2017-09-10T00:34:10.724Z,13.56
2017-09-10T00:36:38.359Z,13.56
2017-09-10T00:39:05.936Z,13.57
2017-09-10T00:41:33.553Z,13.59
2017-09-10T00:44:02.398Z,13.59
2017-09-10T00:46:30.049Z,13.58
2017-09-10T00:48:57.643Z,13.59
2017-09-10T00:51:25.515Z,13.58
2017-09-10T00:53:53.886Z,13.54
2017-09-10T00:56:21.479Z,13.51
2017-09-10T00:58:49.285Z,13.58
2017-09-10T01:01:16.858Z,13.59
2017-09-10T01:03:44.497Z,13.60
2017-09-10T01:06:12.105Z,13.55
2017-09-10T01:08:39.689Z,13.56
2017-09-10T01:11:07.268Z,13.55
2017-09-10T01:13:35.587Z,13.55
2017-09-10T01:16:03.149Z,13.55
2017-09-10T01:18:31.016Z,13.52
2017-09-10T01:20:58.589Z,13.53
2017-09-10T01:23:26.161Z,13.54
2017-09-10T01:25:53.972Z,13.53
2017-09-10T01:28:21.519Z,13.50
2017-09-10T01:30:49.104Z,13.49
2017-09-10T01:33:16.700Z,13.51
2017-09-10T01:35:44.314Z,13.51
2017-09-10T01:38:11.931Z,13.50
2017-09-10T01:40:39.522Z,13.49
2017-09-10T01:43:07.096Z,13.48
2017-09-10T01:45:35.004Z,13.48
2017-09-10T01:48:02.572Z,13.47
2017-09-10T01:50:30.111Z,13.43
2017-09-10T01:52:57.740Z,13.43
2017-09-10T01:55:25.855Z,13.40
2017-09-10T01:57:53.424Z,13.40
2017-09-10T02:00:20.994Z,13.39
2017-09-10T02:02:48.603Z,13.40
2017-09-10T02:05:16.230Z,13.38
2017-09-10T02:07:43.831Z,13.34
2017-09-10T02:10:11.417Z,13.32
2017-09-10T02:12:38.988Z,13.31
2017-09-10T02:15:06.620Z,13.28
2017-09-10T02:17:34.209Z,13.26
2017-09-10T02:20:01.835Z,13.24
2017-09-10T02:22:29.445Z,13.22
2017-09-10T02:24:57.040Z,13.21
2017-09-10T02:27:24.620Z,13.20
2017-09-10T02:29:52.269Z,13.19
2017-09-10T02:32:19.860Z,13.16
2017-09-10T02:34:47.847Z,13.16
2017-09-10T02:37:15.435Z,13.19
2017-09-10T02:39:43.023Z,13.20
2017-09-10T02:42:10.607Z,13.21
2017-09-10T02:44:38.172Z,13.21
2017-09-10T02:47:05.776Z,13.19
2017-09-10T02:49:33.360Z,13.18
2017-09-10T02:52:01.695Z,13.18
2017-09-10T02:54:29.305Z,13.17
2017-09-10T02:56:56.919Z,13.11
2017-09-10T02:59:24.537Z,13.12
2017-09-10T03:01:52.997Z,13.17
2017-09-10T03:04:20.635Z,13.17
2017-09-10T03:06:48.248Z,13.18
2017-09-10T03:09:15.836Z,13.19
2017-09-10T03:11:43.450Z,13.17
2017-09-10T03:14:11.152Z,13.17
2017-09-10T03:16:38.736Z,13.18
2017-09-10T03:19:06.713Z,13.15
2017-09-10T03:21:34.285Z,13.17
2017-09-10T03:24:02.357Z,13.17
2017-09-10T03:26:29.953Z,13.17
2017-09-10T03:28:57.529Z,13.19
2017-09-10T03:31:25.114Z,13.11
2017-09-10T03:33:54.059Z,13.12
2017-09-10T03:36:21.813Z,13.09
2017-09-10T03:38:49.392Z,13.11
2017-09-10T03:41:16.919Z,13.12
2017-09-10T03:43:44.514Z,13.07
2017-09-10T03:46:12.140Z,13.07
2017-09-10T03:48:39.735Z,13.08
2017-09-10T03:51:08.221Z,13.06
2017-09-10T03:53:35.804Z,13.03
2017-09-10T03:56:03.406Z,13.00
2017-09-10T03:58:31.014Z,12.98
2017-09-10T04:00:58.599Z,12.96
2017-09-10T04:03:27.095Z,12.95
2017-09-10T04:05:55.054Z,12.91
2017-09-10T04:08:22.709Z,12.93
2017-09-10T04:10:50.326Z,12.94
2017-09-10T04:13:17.958Z,12.93
2017-09-10T04:15:46.202Z,12.87
2017-09-10T04:18:13.804Z,12.90
2017-09-10T04:20:41.451Z,12.92
2017-09-10T04:23:09.077Z,12.84
2017-09-10T04:25:36.681Z,12.84
2017-09-10T04:28:04.635Z,12.85
2017-09-10T04:30:32.236Z,12.85
2017-09-10T04:32:59.804Z,12.83
2017-09-10T04:35:27.422Z,12.82
2017-09-10T04:37:55.022Z,12.83
2017-09-10T04:40:22.648Z,12.86
2017-09-10T04:42:50.210Z,12.83
2017-09-10T04:45:17.816Z,12.86
2017-09-10T04:47:45.389Z,12.86
2017-09-10T04:50:12.991Z,12.87
2017-09-10T04:52:40.659Z,12.90
2017-09-10T04:55:08.260Z,12.91
2017-09-10T04:57:35.865Z,12.92
2017-09-10T05:00:03.852Z,12.94
2017-09-10T05:02:31.509Z,12.93
2017-09-10T05:04:59.085Z,12.94
2017-09-10T05:07:26.693Z,12.93
2017-09-10T05:09:54.326Z,12.94
2017-09-10T05:12:22.002Z,12.95
2017-09-10T05:14:49.622Z,12.94
2017-09-10T05:17:17.250Z,12.95
2017-09-10T05:19:44.821Z,12.96
2017-09-10T05:22:12.415Z,12.94
2017-09-10T05:24:40.004Z,12.92
2017-09-10T05:27:08.045Z,12.91
2017-09-10T05:29:35.644Z,12.95
2017-09-10T05:32:03.215Z,12.99
2017-09-10T05:34:30.835Z,13.02
2017-09-10T05:36:58.664Z,13.05
2017-09-10T05:39:26.255Z,13.08
2017-09-10T05:41:53.833Z,13.05
2017-09-10T05:44:21.446Z,13.07
2017-09-10T05:46:49.442Z,13.04
2017-09-10T05:49:17.021Z,13.06
2017-09-10T05:51:44.609Z,13.09
2017-09-10T05:54:12.238Z,13.09
2017-09-10T05:56:39.799Z,13.11
2017-09-10T05:59:07.448Z,13.13
2017-09-10T06:01:35.006Z,13.12
2017-09-10T06:04:02.950Z,13.06
2017-09-10T06:06:30.545Z,13.11
2017-09-10T06:08:58.412Z,13.13
2017-09-10T06:11:25.989Z,13.08
2017-09-10T06:13:53.595Z,13.05
2017-09-10T06:16:21.509Z,13.08
2017-09-10T06:18:49.458Z,13.06
2017-09-10T06:21:17.040Z,13.08
2017-09-10T06:23:44.647Z,13.11
2017-09-10T06:26:12.213Z,13.15
2017-09-10T06:28:40.231Z,13.19
2017-09-10T06:31:07.838Z,13.20
2017-09-10T06:33:35.469Z,13.24
2017-09-10T06:36:03.096Z,13.27
2017-09-10T06:38:30.697Z,13.25
2017-09-10T06:40:58.336Z,13.27
2017-09-10T06:43:25.925Z,13.32
2017-09-10T06:45:53.670Z,13.36
2017-09-10T06:48:21.319Z,13.40
2017-09-10T06:50:48.953Z,13.46
2017-09-10T06:53:16.511Z,13.49
2017-09-10T06:55:44.651Z,13.40
2017-09-10T06:58:13.166Z,13.49
2017-09-10T07:00:41.387Z,13.56
2017-09-10T07:03:09.239Z,13.58
2017-09-10T07:05:37.609Z,13.57
2017-09-10T07:08:05.233Z,13.62
2017-09-10T07:10:32.901Z,13.57
2017-09-10T07:13:01.965Z,13.54
2017-09-10T07:15:29.657Z,13.52
2017-09-10T07:17:57.228Z,13.45
2017-09-10T07:20:24.798Z,13.45
2017-09-10T07:22:52.418Z,13.48
2017-09-10T07:25:20.008Z,13.49
2017-09-10T07:27:47.611Z,13.51
2017-09-10T07:30:15.360Z,13.51
2017-09-10T07:32:42.958Z,13.53
2017-09-10T07:35:11.088Z,13.56
2017-09-10T07:37:41.616Z,13.63
2017-09-10T07:40:09.924Z,13.66
2017-09-10T07:42:37.783Z,13.71
2017-09-10T07:45:05.538Z,13.72
2017-09-10T07:47:33.180Z,13.73
2017-09-10T07:50:01.950Z,13.77
2017-09-10T07:52:29.589Z,13.76
2017-09-10T07:54:57.201Z,13.80
2017-09-10T07:57:25.948Z,13.85
2017-09-10T07:59:55.069Z,13.90
2017-09-10T08:02:24.336Z,13.92
2017-09-10T08:04:53.301Z,13.96
2017-09-10T08:07:21.343Z,13.94
2017-09-10T08:09:49.016Z,13.96
2017-09-10T08:12:19.019Z,13.97
2017-09-10T08:14:49.738Z,14.00
2017-09-10T08:17:20.239Z,13.98
2017-09-10T08:19:50.096Z,13.98
2017-09-10T08:22:19.210Z,13.97
2017-09-10T08:24:46.830Z,13.90
2017-09-10T08:27:16.101Z,13.89
2017-09-10T08:29:46.251Z,13.87
2017-09-10T08:32:15.481Z,13.90
2017-09-10T08:34:44.725Z,13.96
2017-09-10T08:37:12.883Z,13.99
2017-09-10T08:39:42.059Z,14.07
2017-09-10T08:42:13.100Z,14.04
2017-09-10T08:44:40.974Z,14.08
2017-09-10T08:47:11.357Z,14.18
2017-09-10T08:49:40.817Z,14.21
2017-09-10T08:52:10.528Z,14.23
2017-09-10T08:54:38.123Z,14.25
2017-09-10T08:57:12.051Z,14.25
2017-09-10T08:59:41.633Z,14.17
2017-09-10T09:02:09.270Z,14.16
2017-09-10T09:04:36.897Z,14.15
2017-09-10T09:07:07.061Z,14.11
2017-09-10T09:09:36.375Z,14.13
2017-09-10T09:12:05.482Z,14.16
2017-09-10T09:14:34.542Z,14.23
2017-09-10T09:17:02.478Z,14.32
2017-09-10T09:19:30.178Z,14.31
2017-09-10T09:21:59.320Z,14.34
2017-09-10T09:24:26.980Z,14.38
2017-09-10T09:26:54.618Z,14.49
2017-09-10T09:29:29.335Z,14.46
2017-09-10T09:31:57.585Z,14.57
2017-09-10T09:34:26.645Z,14.68
2017-09-10T09:36:55.549Z,14.75
2017-09-10T09:39:23.182Z,14.72
2017-09-10T09:41:52.547Z,14.73
2017-09-10T09:44:20.975Z,14.80
2017-09-10T09:46:48.642Z,14.86
2017-09-10T09:49:16.364Z,14.94
2017-09-10T09:51:45.509Z,15.04
2017-09-10T09:54:13.472Z,15.08
2017-09-10T09:56:42.486Z,15.05
2017-09-10T09:59:10.329Z,15.07
2017-09-10T10:01:38.531Z,15.04
2017-09-10T10:04:06.081Z,15.04
2017-09-10T10:06:35.038Z,15.14
2017-09-10T10:09:02.982Z,15.14
2017-09-10T10:11:31.701Z,15.23
2017-09-10T10:14:00.742Z,15.37
2017-09-10T10:16:28.723Z,15.39
2017-09-10T10:18:57.416Z,15.37
2017-09-10T10:21:26.155Z,15.40
2017-09-10T10:23:57.093Z,15.30
2017-09-10T10:26:26.027Z,15.36
2017-09-10T10:28:55.866Z,15.43
2017-09-10T10:31:24.398Z,15.39
2017-09-10T10:33:52.366Z,15.43
2017-09-10T10:36:19.907Z,15.51
2017-09-10T10:38:49.657Z,15.58
2017-09-10T10:41:17.266Z,15.51
2017-09-10T10:43:48.217Z,15.55
2017-09-10T10:46:16.386Z,15.55
2017-09-10T10:48:45.952Z,15.63
2017-09-10T10:51:14.875Z,15.65
2017-09-10T10:53:42.585Z,15.73
2017-09-10T10:56:11.900Z,15.78
2017-09-10T10:58:39.477Z,15.78
2017-09-10T11:01:07.068Z,15.85
2017-09-10T11:03:34.689Z,15.91
2017-09-10T11:06:02.259Z,16.05
2017-09-10T11:08:29.842Z,16.15
2017-09-10T11:10:57.430Z,16.18
2017-09-10T11:13:25.070Z,16.28
2017-09-10T11:15:52.678Z,16.28
2017-09-10T11:18:20.604Z,16.32
2017-09-10T11:20:48.162Z,16.41
2017-09-10T11:23:15.726Z,16.52
2017-09-10T11:25:43.351Z,16.57
2017-09-10T11:28:11.444Z,16.63
2017-09-10T11:30:40.587Z,16.56
2017-09-10T11:33:08.325Z,16.63
2017-09-10T11:35:35.935Z,16.70
2017-09-10T11:38:03.468Z,16.71
2017-09-10T11:40:31.419Z,16.75
2017-09-10T11:42:59.034Z,16.77
2017-09-10T11:45:28.389Z,16.76
2017-09-10T11:47:55.999Z,16.67
2017-09-10T11:50:23.604Z,16.71
2017-09-10T11:52:51.199Z,16.76
2017-09-10T11:55:19.770Z,16.81
2017-09-10T11:57:49.325Z,16.80
2017-09-10T12:00:17.061Z,16.85
2017-09-10T12:02:45.317Z,16.84
2017-09-10T12:05:12.939Z,16.87
2017-09-10T12:07:40.534Z,16.88
2017-09-10T12:10:08.136Z,16.85
2017-09-10T12:12:35.746Z,16.88
2017-09-10T12:15:03.395Z,16.73
2017-09-10T12:17:31.123Z,16.77
2017-09-10T12:19:58.871Z,16.80
2017-09-10T12:22:26.920Z,16.72
2017-09-10T12:24:55.729Z,16.68
2017-09-10T12:27:23.344Z,16.69
2017-09-10T12:29:50.934Z,16.68
2017-09-10T12:32:18.550Z,16.71
2017-09-10T12:34:46.137Z,16.74
2017-09-10T12:37:13.757Z,16.77
2017-09-10T12:39:41.338Z,16.88
2017-09-10T12:42:08.950Z,16.82
2017-09-10T12:44:36.505Z,16.91
2017-09-10T12:47:04.452Z,16.95
2017-09-10T12:49:32.044Z,16.97
2017-09-10T12:51:59.626Z,17.04
2017-09-10T12:54:27.238Z,16.81
2017-09-10T12:56:54.924Z,16.62
2017-09-10T12:59:22.587Z,16.69
2017-09-10T13:01:50.145Z,16.74
2017-09-10T13:04:19.400Z,16.82
2017-09-10T13:06:47.024Z,16.90
2017-09-10T13:09:14.651Z,16.89
2017-09-10T13:11:42.267Z,16.98
2017-09-10T13:14:09.895Z,16.95
2017-09-10T13:16:37.574Z,16.96
2017-09-10T13:19:05.332Z,16.94
2017-09-10T13:21:32.990Z,16.99
2017-09-10T13:24:00.664Z,16.92
2017-09-10T13:26:30.023Z,16.91
2017-09-10T13:28:57.859Z,17.00
2017-09-10T13:31:26.017Z,17.04
2017-09-10T13:33:53.670Z,17.09
2017-09-10T13:36:26.463Z,17.10
2017-09-10T13:38:54.202Z,17.13
2017-09-10T13:41:21.883Z,17.24
2017-09-10T13:43:49.536Z,17.29
2017-09-10T13:46:17.159Z,17.32
2017-09-10T13:48:44.912Z,17.37
2017-09-10T13:51:12.541Z,17.44
2017-09-10T13:53:40.277Z,17.53
2017-09-10T13:56:07.935Z,17.51
2017-09-10T13:58:35.572Z,17.53
2017-09-10T14:01:03.528Z,17.46
2017-09-10T14:03:31.094Z,17.28
2017-09-10T14:05:58.834Z,17.28
2017-09-10T14:08:26.532Z,17.32
2017-09-10T14:10:54.282Z,17.39
2017-09-10T14:13:22.121Z,17.38
2017-09-10T14:15:49.759Z,17.41
2017-09-10T14:18:17.430Z,17.49
2017-09-10T14:20:45.077Z,17.58
2017-09-10T14:23:12.711Z,17.64
2017-09-10T14:25:40.296Z,17.73
2017-09-10T14:28:07.972Z,17.75
2017-09-10T14:30:35.712Z,17.80
2017-09-10T14:33:03.330Z,17.95
2017-09-10T14:35:31.049Z,18.24
2017-09-10T14:37:58.685Z,18.45
2017-09-10T14:40:26.777Z,18.58
2017-09-10T14:42:54.406Z,18.65
2017-09-10T14:45:22.184Z,18.99
2017-09-10T14:47:49.951Z,18.83
2017-09-10T14:50:17.726Z,18.58
2017-09-10T14:52:45.360Z,18.63
2017-09-10T14:55:12.947Z,18.87
2017-09-10T14:57:40.631Z,19.03
2017-09-10T15:00:08.258Z,19.30
2017-09-10T15:02:36.139Z,18.95
2017-09-10T15:05:03.771Z,18.66
2017-09-10T15:07:31.408Z,18.63
2017-09-10T15:09:58.995Z,18.68
2017-09-10T15:12:26.597Z,18.91
2017-09-10T15:14:54.219Z,19.51
2017-09-10T15:17:21.823Z,19.98
2017-09-10T15:19:49.497Z,19.97
2017-09-10T15:22:17.120Z,20.34
2017-09-10T15:24:45.025Z,20.50
2017-09-10T15:27:12.651Z,20.17
2017-09-10T15:29:40.233Z,19.98
2017-09-10T15:32:07.846Z,19.84
2017-09-10T15:34:35.503Z,19.93
2017-09-10T15:37:03.151Z,19.70
2017-09-10T15:39:31.805Z,19.26
2017-09-10T15:41:59.484Z,18.98
2017-09-10T15:44:27.112Z,18.71
2017-09-10T15:46:54.736Z,18.51
2017-09-10T15:49:22.335Z,18.26
2017-09-10T15:51:50.305Z,18.09
2017-09-10T15:54:17.900Z,17.93
2017-09-10T15:56:45.571Z,17.88
2017-09-10T15:59:13.201Z,17.72
2017-09-10T16:01:41.197Z,17.64
2017-09-10T16:04:08.879Z,17.62
2017-09-10T16:06:36.561Z,17.69
2017-09-10T16:09:04.136Z,17.72
2017-09-10T16:11:31.780Z,17.66
2017-09-10T16:13:59.351Z,17.66
2017-09-10T16:16:27.574Z,17.60
2017-09-10T16:18:55.188Z,17.43
2017-09-10T16:21:23.471Z,17.33
2017-09-10T16:23:52.388Z,17.31
2017-09-10T16:26:19.987Z,17.26
2017-09-10T16:28:47.557Z,17.12
2017-09-10T16:31:15.141Z,16.99
2017-09-10T16:33:42.881Z,16.93
2017-09-10T16:36:10.494Z,16.90
2017-09-10T16:38:38.098Z,16.84
2017-09-10T16:41:06.456Z,16.83
2017-09-10T16:43:34.478Z,16.79
2017-09-10T16:46:02.067Z,16.70
2017-09-10T16:48:29.624Z,16.66
2017-09-10T16:50:57.221Z,16.57
2017-09-10T16:53:24.874Z,16.43
2017-09-10T16:55:52.452Z,16.35
2017-09-10T16:58:20.458Z,16.32
2017-09-10T17:00:48.057Z,16.29
2017-09-10T17:03:15.621Z,16.25
2017-09-10T17:05:43.195Z,16.22
2017-09-10T17:08:10.752Z,16.18
2017-09-10T17:10:38.495Z,16.15
2017-09-10T17:13:06.111Z,16.13
2017-09-10T17:15:33.717Z,16.11
2017-09-10T17:18:01.288Z,16.09
2017-09-10T17:20:28.887Z,16.06
2017-09-10T17:22:56.498Z,16.06
2017-09-10T17:25:24.397Z,16.03
2017-09-10T17:27:53.263Z,16.03
2017-09-10T17:30:20.819Z,16.00
2017-09-10T17:32:48.489Z,15.97
2017-09-10T17:35:16.067Z,15.93
2017-09-10T17:37:43.665Z,15.86
2017-09-10T17:40:11.205Z,15.81
2017-09-10T17:42:38.805Z,15.79
2017-09-10T17:45:06.397Z,15.78
2017-09-10T17:47:33.968Z,15.75
2017-09-10T17:50:01.546Z,15.70
2017-09-10T17:52:29.236Z,15.67
2017-09-10T17:54:56.834Z,15.63
2017-09-10T17:57:24.935Z,15.61
2017-09-10T17:59:52.536Z,15.59
2017-09-10T18:02:20.123Z,15.57
2017-09-10T18:04:47.754Z,15.54
2017-09-10T18:07:15.447Z,15.50
2017-09-10T18:09:43.106Z,15.49
2017-09-10T18:12:11.803Z,15.46
2017-09-10T18:14:39.933Z,15.43
2017-09-10T18:17:07.536Z,15.38
2017-09-10T18:19:35.284Z,15.40
2017-09-10T18:22:02.991Z,15.38
2017-09-10T18:24:30.575Z,15.38
2017-09-10T18:26:58.274Z,15.33
2017-09-10T18:29:25.888Z,15.28
2017-09-10T18:31:53.813Z,15.22
2017-09-10T18:34:21.379Z,15.19
2017-09-10T18:36:48.940Z,15.14
2017-09-10T18:39:16.725Z,15.08
2017-09-10T18:41:44.328Z,14.94
2017-09-10T18:44:11.977Z,14.80
2017-09-10T18:46:39.569Z,14.72
2017-09-10T18:49:07.545Z,14.68
2017-09-10T18:51:35.591Z,14.64
2017-09-10T18:54:03.198Z,14.62
2017-09-10T18:56:30.836Z,14.61
2017-09-10T18:58:58.405Z,14.63
2017-09-10T19:01:26.038Z,14.63
2017-09-10T19:03:53.600Z,14.59
2017-09-10T19:06:22.096Z,14.56
2017-09-10T19:08:51.805Z,14.47
2017-09-10T19:11:21.363Z,14.40
2017-09-10T19:13:51.341Z,14.36
2017-09-10T19:16:19.018Z,14.32
2017-09-10T19:18:46.660Z,14.24
2017-09-10T19:21:14.660Z,14.19
2017-09-10T19:23:42.257Z,14.22
2017-09-10T19:26:09.881Z,14.23
2017-09-10T19:28:38.143Z,14.22
2017-09-10T19:31:05.779Z,14.22
2017-09-10T19:33:33.369Z,14.21
2017-09-10T19:36:00.996Z,14.16
2017-09-10T19:38:28.595Z,14.12
2017-09-10T19:40:56.205Z,14.08
2017-09-10T19:43:23.798Z,14.04
2017-09-10T19:45:56.287Z,14.01
2017-09-10T19:48:24.104Z,13.98
2017-09-10T19:50:51.989Z,13.96
2017-09-10T19:53:19.657Z,13.95
2017-09-10T19:55:47.263Z,13.92
2017-09-10T19:58:14.881Z,13.90
2017-09-10T20:00:42.474Z,13.86
2017-09-10T20:03:10.111Z,13.83
2017-09-10T20:05:37.701Z,13.76
2017-09-10T20:08:05.431Z,13.72
2017-09-10T20:10:33.526Z,13.68
2017-09-10T20:13:01.174Z,13.65
2017-09-10T20:15:28.787Z,13.63
2017-09-10T20:17:56.449Z,13.63
2017-09-10T20:20:24.009Z,13.62
2017-09-10T20:22:51.850Z,13.62
2017-09-10T20:25:19.418Z,13.61
2017-09-10T20:27:47.050Z,13.62
2017-09-10T20:30:14.808Z,13.57
2017-09-10T20:32:42.359Z,13.52
2017-09-10T20:35:09.984Z,13.48
2017-09-10T20:37:38.888Z,13.41
2017-09-10T20:40:06.795Z,13.39
2017-09-10T20:42:34.414Z,13.37
2017-09-10T20:45:02.522Z,13.33
2017-09-10T20:47:30.136Z,13.24
2017-09-10T20:49:57.815Z,13.18
2017-09-10T20:52:25.405Z,13.17
2017-09-10T20:54:52.969Z,13.15
2017-09-10T20:57:20.911Z,13.10
2017-09-10T20:59:48.635Z,13.09
2017-09-10T21:02:16.273Z,13.07
2017-09-10T21:04:43.944Z,13.02
2017-09-10T21:07:11.531Z,13.08
2017-09-10T21:09:39.181Z,13.08
2017-09-10T21:12:06.767Z,13.08
2017-09-10T21:14:34.382Z,13.09
2017-09-10T21:17:01.976Z,13.09
2017-09-10T21:19:29.949Z,13.11
2017-09-10T21:21:57.532Z,13.11
2017-09-10T21:24:25.889Z,13.11
2017-09-10T21:26:53.521Z,13.14
2017-09-10T21:29:21.118Z,13.15
2017-09-10T21:31:48.686Z,13.14
2017-09-10T21:34:16.276Z,13.14
2017-09-10T21:36:43.872Z,13.13
2017-09-10T21:39:11.626Z,13.10
2017-09-10T21:41:39.425Z,13.07
2017-09-10T21:44:07.310Z,13.06
2017-09-10T21:46:34.882Z,13.07
2017-09-10T21:49:02.458Z,13.07
2017-09-10T21:51:30.330Z,13.04
2017-09-10T21:53:57.970Z,13.02
2017-09-10T21:56:25.921Z,13.00
2017-09-10T21:58:53.512Z,12.99
2017-09-10T22:01:21.091Z,12.99
2017-09-10T22:03:48.671Z,12.99
2017-09-10T22:06:16.256Z,12.99
2017-09-10T22:08:43.860Z,13.00
2017-09-10T22:11:11.436Z,12.99
2017-09-10T22:13:39.368Z,12.96
2017-09-10T22:16:06.951Z,12.92
2017-09-10T22:18:34.518Z,12.89
2017-09-10T22:21:02.236Z,12.86
2017-09-10T22:23:29.810Z,12.85
2017-09-10T22:25:57.599Z,12.82
2017-09-10T22:28:25.203Z,12.81
2017-09-10T22:30:53.098Z,12.81
2017-09-10T22:33:20.685Z,12.79
2017-09-10T22:35:48.263Z,12.79
2017-09-10T22:38:15.825Z,12.78
2017-09-10T22:40:43.383Z,12.75
2017-09-10T22:43:10.958Z,12.74
2017-09-10T22:45:38.536Z,12.72
2017-09-10T22:48:06.417Z,12.66
2017-09-10T22:50:33.989Z,12.63
2017-09-10T22:53:01.554Z,12.60
2017-09-10T22:55:29.241Z,12.60
2017-09-10T22:57:56.800Z,12.58
2017-09-10T23:00:24.396Z,12.56
2017-09-10T23:02:52.707Z,12.54
2017-09-10T23:05:20.264Z,12.53
2017-09-10T23:07:47.860Z,12.48
2017-09-10T23:10:15.436Z,12.45
2017-09-10T23:12:43.266Z,12.42
2017-09-10T23:15:11.014Z,12.42
2017-09-10T23:17:38.576Z,12.39
2017-09-10T23:20:06.154Z,12.37
2017-09-10T23:22:33.713Z,12.37
2017-09-10T23:25:01.301Z,12.34
2017-09-10T23:27:28.880Z,12.28
2017-09-10T23:29:56.512Z,12.24
2017-09-10T23:32:24.086Z,12.19
2017-09-10T23:34:51.658Z,12.14
2017-09-10T23:37:19.240Z,12.08
2017-09-10T23:39:47.172Z,12.04
2017-09-10T23:42:14.788Z,12.00
2017-09-10T23:44:42.351Z,11.95
2017-09-10T23:47:09.969Z,11.94
2017-09-10T23:49:37.652Z,11.92
2017-09-10T23:52:05.232Z,11.92
2017-09-10T23:54:33.146Z,11.91
2017-09-10T23:57:00.776Z,11.92
2017-09-10T23:59:28.352Z,11.92
